Latest Weather Observations for Mackay Airport

IDQ60801

Issued at 7:02 am EST Thursday 2 April 2015 (issued every 30 minutes, with the page automatically refreshed every 10 minutes)

About weather observations | Map of weather stations | Latest weather observations for QLD | Other Formats
Station Details ID: 033045 Name: MACKAY AERO Lat: -21.17 Lon: 149.18 Height: 4.7 m
Data from the previous 72 hours. | See also: Recent months at Mackay Airport
Date/Time
EST
Temp
°C
App
Temp
°C
Dew
Point
Rel
Hum
%
Delta-T
°C
Wind Press
QNH
hPa
Press
MSL
hPa
Rain
since 9 am
mm
Dir
 
Spd
km/h
Gust
km/h
Spd
kts
Gust
kts
02/07:00am 22.3 24.1 20.4 89 1.2 S 11 17 6 9 1014.2 1014.2 18.4
02/06:30am 21.6 23.3 20.1 91 1.0 SSW 11 13 6 7 1013.6 1013.6 18.4
02/06:03am 21.8 23.6 20.3 91 1.0 S 11 15 6 8 1013.2 1013.2 18.4
02/05:48am 21.7 22.9 20.0 90 1.1 SSE 13 17 7 9 1013.1 1013.1 18.4
02/05:30am 21.6 22.9 20.1 91 1.0 SSE 13 20 7 11 1013.0 1013.0 18.4
02/05:00am 21.8 22.5 20.4 92 0.9 S 17 22 9 12 1012.6 1012.6 18.4
02/04:35am 22.0 22.5 20.8 93 0.8 SSE 19 24 10 13 1012.8 1012.8 18.4
02/04:30am 22.0 22.5 20.8 93 0.8 SSE 19 24 10 13 1012.8 1012.8 18.4
02/04:17am 22.1 22.6 20.9 93 0.8 SSE 19 26 10 14 1012.6 1012.6 18.4
02/04:00am 22.1 22.4 20.7 92 0.9 SSE 20 32 11 17 1012.4 1012.4 18.4
02/03:49am 22.1 23.4 20.9 93 0.8 S 15 20 8 11 1012.4 1012.4 18.4
02/03:30am 22.0 24.5 21.0 94 0.7 SE 9 15 5 8 1012.5 1012.5 18.4
02/03:29am 21.9 24.3 20.9 94 0.7 ESE 9 15 5 8 1012.5 1012.5 18.4
02/03:25am 21.8 23.8 20.8 94 0.6 ESE 11 13 6 7 1012.5 1012.5 18.4
02/03:23am 21.8 23.8 20.8 94 0.6 ESE 11 13 6 7 1012.5 1012.5 18.4
02/03:00am 22.4 23.6 21.4 94 0.7 E 17 24 9 13 1012.9 1012.9 17.8
02/02:45am 22.1 24.2 20.9 93 0.8 ENE 11 20 6 11 1012.9 1012.9 17.4
02/02:39am 22.0 24.1 21.0 94 0.7 ENE 11 20 6 11 1012.9 1012.9 17.2
02/02:30am 21.9 23.6 20.9 94 0.7 ENE 13 17 7 9 1013.0 1013.0 17.2
02/02:21am 22.0 22.9 20.8 93 0.8 E 17 22 9 12 1013.0 1013.0 16.6
02/02:00am 21.7 23.6 20.5 93 0.8 S 11 17 6 9 1013.0 1013.0 16.0
02/01:30am 21.4 22.7 20.2 93 0.8 SSW 13 15 7 8 1013.0 1013.0 16.0
02/01:00am 21.8 22.9 20.4 92 0.9 SSW 15 19 8 10 1013.3 1013.3 16.0
02/12:30am 21.8 22.4 20.3 91 1.0 S 17 22 9 12 1013.7 1013.7 16.0
02/12:00am 21.9 22.5 20.2 90 1.1 S 17 20 9 11 1014.0 1014.0 16.0
 
Date/Time
EST
Temp
°C
App
Temp
°C
Dew
Point
Rel
Hum
%
Delta-T
°C
Wind Press
QNH
hPa
Press
MSL
hPa
Rain
since 9 am
mm
Dir
 
Spd
km/h
Gust
km/h
Spd
kts
Gust
kts
01/11:30pm 22.1 23.9 20.4 90 1.1 S 11 15 6 8 1014.3 1014.3 16.0
01/11:00pm 21.9 23.2 20.2 90 1.1 S 13 17 7 9 1014.4 1014.4 16.0
01/10:30pm 21.7 22.6 20.0 90 1.1 S 15 20 8 11 1014.8 1014.8 16.0
01/10:00pm 21.8 23.2 20.3 91 1.0 S 13 17 7 9 1015.2 1015.2 16.0
01/09:30pm 21.9 22.9 20.2 90 1.1 S 15 24 8 13 1015.1 1015.1 16.0
01/09:00pm 22.0 22.6 20.3 90 1.1 S 17 24 9 13 1015.0 1015.0 16.0
01/08:30pm 22.2 22.9 20.5 90 1.1 S 17 22 9 12 1014.8 1014.8 16.0
01/08:00pm 22.8 23.7 20.9 89 1.2 S 17 22 9 12 1014.5 1014.5 16.0
01/07:30pm 23.1 23.8 21.2 89 1.2 SSE 19 26 10 14 1014.2 1014.2 16.0
01/07:00pm 23.6 22.4 20.9 85 1.8 SSE 28 35 15 19 1013.9 1013.9 16.0
01/06:30pm 24.0 22.1 21.3 85 1.8 SE 33 43 18 23 1013.4 1013.4 16.0
01/06:00pm 24.9 23.9 21.2 80 2.4 SE 28 35 15 19 1013.2 1013.2 16.0
01/05:30pm 25.5 24.1 20.5 74 3.3 SE 28 35 15 19 1012.8 1012.8 16.0
01/05:00pm 25.9 24.7 20.9 74 3.3 SE 28 33 15 18 1012.5 1012.5 16.0
01/04:30pm 26.6 25.9 21.8 75 3.2 ESE 28 35 15 19 1012.3 1012.3 16.0
01/04:00pm 27.4 26.0 20.5 66 4.5 ESE 28 35 15 19 1012.2 1012.2 16.0
01/03:30pm 27.9 27.4 22.1 70 3.9 SE 28 35 15 19 1012.4 1012.4 16.0
01/03:00pm 27.5 27.0 21.5 70 4.0 ESE 26 33 14 18 1012.3 1012.3 16.0
01/02:30pm 27.7 26.8 21.5 69 4.1 SE 28 35 15 19 1012.6 1012.6 16.0
01/02:00pm 27.3 26.0 21.3 69 4.0 SE 30 35 16 19 1013.0 1013.0 16.0
01/01:30pm 27.7 27.4 22.6 74 3.5 SE 28 39 15 21 1013.5 1013.5 16.0
01/01:00pm 26.3 25.9 21.7 76 3.1 SE 26 32 14 17 1013.9 1013.9 16.0
01/12:30pm 25.5 25.3 22.0 81 2.3 SE 26 33 14 18 1014.4 1014.4 16.0
01/12:14pm 24.7 26.1 22.8 89 1.3 SE 20 26 11 14 1014.7 1014.7 16.0
01/12:00pm 23.1 23.1 21.7 92 0.9 ENE 24 30 13 16 1014.9 1014.9 16.0
01/11:30am 23.3 23.3 21.7 91 1.1 SE 24 32 13 17 1015.6 1015.6 5.8
01/11:21am 24.5 24.6 21.2 82 2.2 SE 22 26 12 14 1015.7 1015.7 0.4
01/11:00am 26.9 27.5 21.4 72 3.7 SE 20 28 11 15 1015.9 1015.9 0.0
01/10:30am 25.5 26.2 21.2 77 2.8 SSE 19 28 10 15 1016.3 1016.3 0.0
01/10:00am 26.3 26.6 20.8 71 3.6 SSE 20 28 11 15 1016.5 1016.5 0.0
01/09:30am 26.0 26.6 21.4 76 3.1 S 20 32 11 17 1016.6 1016.6 0.0
01/09:00am 24.7 26.2 21.2 81 2.3 S 15 20 8 11 1016.6 1016.6 4.0
01/08:30am 24.3 24.8 20.8 81 2.3 SSE 19 28 10 15 1016.5 1016.5 4.0
01/08:00am 24.5 25.3 21.8 85 1.8 SSE 20 30 11 16 1016.2 1016.2 4.0
01/07:44am 23.6 24.8 21.5 88 1.4 S 17 24 9 13 1016.1 1016.1 4.0
01/07:30am 23.5 24.9 21.9 91 1.1 S 17 20 9 11 1016.0 1016.0 4.0
01/07:18am 23.1 24.8 21.7 92 0.9 S 15 20 8 11 1015.9 1015.9 4.0
01/07:11am 23.0 24.7 21.6 92 0.9 S 15 20 8 11 1015.9 1015.9 4.0
01/07:00am 23.0 24.2 21.4 91 1.1 S 17 20 9 11 1015.8 1015.8 4.0
01/06:46am 23.1 23.9 21.4 90 1.1 SSE 19 24 10 13 1015.8 1015.8 4.0
01/06:43am 23.1 24.3 21.4 90 1.1 SSE 17 22 9 12 1015.8 1015.8 4.0
01/06:32am 23.1 23.0 21.4 90 1.1 SE 24 35 13 19 1015.7 1015.7 4.0
01/06:31am 23.1 22.6 21.4 90 1.1 SE 26 35 14 19 1015.7 1015.7 4.0
01/06:30am 23.2 22.7 21.5 90 1.1 SE 26 35 14 19 1015.7 1015.7 4.0
01/06:16am 22.9 22.5 21.7 93 0.8 SE 26 43 14 23 1015.7 1015.7 4.0
01/06:11am 22.9 23.9 21.7 93 0.8 SSE 19 43 10 23 1015.6 1015.6 4.0
01/06:00am 22.3 23.9 20.8 91 1.0 S 13 19 7 10 1015.2 1015.2 4.0
01/05:30am 22.5 23.3 20.6 89 1.2 S 17 24 9 13 1014.9 1014.9 4.0
01/05:00am 22.9 23.6 21.2 90 1.1 S 19 26 10 14 1015.0 1015.0 4.0
01/04:30am 22.7 24.5 21.2 91 1.0 SSW 13 17 7 9 1014.6 1014.6 4.0
01/04:00am 22.7 24.8 21.0 90 1.1 SSW 11 15 6 8 1014.3 1014.3 4.0
01/03:30am 23.4 24.1 20.5 84 1.9 S 17 24 9 13 1014.2 1014.2 4.0
01/03:00am 24.9 24.3 20.4 76 2.9 SE 24 33 13 18 1014.2 1014.2 4.0
01/02:30am 25.1 23.9 20.1 74 3.2 SE 26 33 14 18 1014.6 1014.6 4.0
01/02:00am 25.2 23.9 20.7 76 2.9 SE 28 35 15 19 1015.0 1015.0 4.0
01/01:30am 25.1 22.5 19.9 73 3.4 ESE 33 41 18 22 1015.3 1015.3 4.0
01/01:00am 24.9 21.5 19.9 74 3.2 ESE 37 48 20 26 1015.7 1015.7 4.0
01/12:51am 24.5 23.9 20.4 78 2.7 SE 24 46 13 25 1016.0 1016.0 4.0
01/12:30am 23.7 24.5 21.8 89 1.3 S 20 28 11 15 1016.6 1016.6 4.0
01/12:00am 23.4 24.4 21.8 91 1.1 S 19 24 10 13 1016.9 1016.9 4.0
 
Date/Time
EST
Temp
°C
App
Temp
°C
Dew
Point
Rel
Hum
%
Delta-T
°C
Wind Press
QNH
hPa
Press
MSL
hPa
Rain
since 9 am
mm
Dir
 
Spd
km/h
Gust
km/h
Spd
kts
Gust
kts
31/11:30pm 23.1 24.4 21.7 92 0.9 S 17 24 9 13 1017.1 1017.1 4.0
31/11:00pm 22.6 23.5 21.6 94 0.7 S 19 24 10 13 1017.2 1017.2 4.0
31/10:30pm 22.7 23.9 21.5 93 0.8 S 17 22 9 12 1017.3 1017.3 4.0
31/10:00pm 22.5 24.5 21.5 94 0.7 S 13 19 7 10 1017.4 1017.4 4.0
31/09:30pm 22.4 24.1 21.6 95 0.5 S 15 20 8 11 1017.6 1017.6 3.8
31/09:08pm 22.1 21.8 21.1 94 0.7 SSE 24 32 13 17 1017.9 1017.9 3.8
31/09:00pm 22.0 20.9 21.0 94 0.7 S 28 39 15 21 1017.9 1017.9 3.8
31/08:39pm 22.6 21.2 21.1 91 1.0 SSE 30 41 16 22 1017.6 1017.6 0.6
31/08:30pm 23.3 20.6 20.4 84 1.9 S 35 50 19 27 1017.3 1017.3 0.0
31/08:00pm 26.2 25.1 22.9 82 2.2 ESE 33 43 18 23 1016.6 1016.6 0.0
31/07:30pm 26.3 25.8 22.8 81 2.4 ESE 30 39 16 21 1016.1 1016.1 0.0
31/07:25pm 26.3 26.3 23.0 82 2.2 ESE 28 37 15 20 1016.0 1016.0 0.0
31/07:00pm 25.0 27.7 22.9 88 1.4 SSE 13 19 7 10 1015.8 1015.8 0.0
31/06:30pm 25.3 27.0 22.4 84 1.9 SSE 17 22 9 12 1015.6 1015.6 0.0
31/06:00pm 25.5 27.4 22.0 81 2.3 SSE 15 22 8 12 1015.3 1015.3 0.0
31/05:30pm 25.9 26.1 22.0 79 2.6 SE 24 28 13 15 1015.1 1015.1 0.0
31/05:00pm 26.2 25.9 21.8 77 2.9 SE 26 32 14 17 1014.9 1014.9 0.0
31/04:30pm 26.8 27.2 22.4 77 3.0 SE 24 32 13 17 1014.6 1014.6 0.0
31/04:00pm 28.0 28.8 23.1 74 3.3 SSE 24 35 13 19 1014.3 1014.3 0.0
31/03:30pm 27.1 27.8 22.3 75 3.2 SE 22 33 12 18 1014.7 1014.7 0.0
31/03:00pm 27.2 26.8 21.7 72 3.7 SE 26 33 14 18 1014.9 1014.9 0.0
31/02:30pm 28.4 28.4 22.4 70 4.1 SE 26 35 14 19 1014.9 1014.9 0.0
31/02:00pm 28.3 28.9 23.4 75 3.4 SSE 26 33 14 18 1015.2 1015.2 0.0
31/01:30pm 27.6 27.9 23.0 76 3.1 SE 26 32 14 17 1015.7 1015.7 0.0
31/01:20pm 27.7 29.7 23.9 80 2.6 SE 20 28 11 15 1015.9 1015.9 0.0
31/01:17pm 27.3 28.7 23.5 80 2.6 SE 22 28 12 15 1015.9 1015.9 0.0
31/01:00pm 26.6 29.4 24.3 87 1.6 ESE 17 22 9 12 1016.2 1016.2 0.0
31/12:30pm 27.7 27.3 22.4 73 3.6 SE 28 35 15 19 1016.8 1016.8 0.0
31/12:00pm 27.1 27.5 23.1 79 2.7 SE 26 32 14 17 1017.1 1017.1 0.0
31/11:42am 26.6 27.3 22.9 80 2.5 SE 24 32 13 17 1017.4 1017.4 0.0
31/11:30am 26.2 27.1 23.3 84 2.0 SE 24 32 13 17 1017.6 1017.6 0.0
31/11:29am 26.4 27.5 23.7 85 1.9 SE 24 32 13 17 1017.6 1017.6 0.0
31/11:00am 27.6 28.8 22.5 74 3.4 SSE 20 26 11 14 1018.0 1018.0 0.0
31/10:30am 27.1 28.3 22.5 76 3.1 SSE 20 26 11 14 1018.2 1018.2 0.0
31/10:00am 26.9 28.1 23.2 80 2.5 SE 22 30 12 16 1018.4 1018.4 0.0
31/09:30am 25.6 27.6 22.9 85 1.8 S 17 24 9 13 1018.3 1018.3 0.0
31/09:00am 25.6 27.2 22.1 81 2.3 S 17 22 9 12 1018.4 1018.4 11.6
31/08:30am 24.4 26.5 21.7 85 1.8 S 13 17 7 9 1018.3 1018.3 11.6
31/08:00am 24.5 25.6 21.2 82 2.2 S 17 20 9 11 1018.2 1018.2 11.6
31/07:30am 23.4 24.7 20.9 86 1.6 S 15 24 8 13 1017.9 1017.9 11.6
31/07:00am 22.6 22.4 20.5 88 1.4 SSE 22 32 12 17 1017.6 1017.6 11.4
31/06:43am 22.7 21.6 21.0 90 1.1 SSE 28 39 15 21 1017.4 1017.4 11.4
31/06:30am 23.1 21.5 21.5 91 1.1 SSE 32 43 17 23 1017.2 1017.2 11.4
31/06:27am 23.0 22.2 21.6 92 0.9 SSE 28 43 15 23 1017.1 1017.1 11.4
31/06:03am 22.7 21.8 21.5 93 0.8 SSE 28 39 15 21 1016.8 1016.8 11.4
31/06:00am 22.7 21.5 21.5 93 0.8 SSE 30 41 16 22 1016.8 1016.8 11.4
31/05:30am 23.1 22.6 22.1 94 0.7 SE 28 39 15 21 1016.8 1016.8 11.4
31/05:25am 23.2 22.2 22.0 93 0.8 SE 30 41 16 22 1016.9 1016.9 11.0
31/05:13am 23.3 23.6 22.3 94 0.7 SSE 24 33 13 18 1016.7 1016.7 11.0
31/05:02am 23.2 24.2 22.2 94 0.7 SSE 20 32 11 17 1016.6 1016.6 11.0
31/05:00am 23.2 24.2 22.2 94 0.7 SSE 20 32 11 17 1016.5 1016.5 11.0
31/04:30am 23.2 24.4 22.2 94 0.7 S 19 24 10 13 1016.1 1016.1 11.0
31/04:00am 23.5 25.2 22.3 93 0.8 SSW 17 32 9 17 1016.1 1016.1 11.0
31/03:30am 24.5 26.2 22.4 88 1.4 SE 17 22 9 12 1016.0 1016.0 11.0
31/03:00am 23.6 24.7 21.9 90 1.1 SE 19 24 10 13 1015.9 1015.9 10.8
31/02:48am 23.4 24.6 22.2 93 0.8 SE 19 24 10 13 1016.2 1016.2 10.8
31/02:30am 23.3 23.5 22.1 93 0.8 SE 24 30 13 16 1016.6 1016.6 10.6
31/02:00am 23.6 23.1 22.2 92 0.9 ESE 28 39 15 21 1016.8 1016.8 10.2
31/01:54am 24.1 23.5 22.7 92 0.9 ESE 30 39 16 21 1016.8 1016.8 10.0
31/01:41am 24.0 22.4 22.6 92 0.9 ESE 35 44 19 24 1016.8 1016.8 10.0
31/01:30am 24.3 23.3 22.7 91 1.1 ESE 32 43 17 23 1016.9 1016.9 9.8
31/01:23am 24.6 25.8 22.5 88 1.4 E 20 43 11 23 1017.1 1017.1 9.8
31/01:00am 24.7 26.9 22.6 88 1.4 ENE 15 20 8 11 1017.3 1017.3 9.8
31/12:35am 24.2 25.9 22.3 89 1.3 ENE 17 24 9 13 1017.6 1017.6 9.8
31/12:30am 24.1 25.1 22.2 89 1.3 ENE 20 28 11 15 1017.7 1017.7 9.8
31/12:16am 24.2 24.3 22.6 91 1.1 E 26 35 14 19 1017.9 1017.9 9.6
31/12:00am 25.1 24.5 23.3 90 1.2 E 32 44 17 24 1018.0 1018.0 9.6
 
Date/Time
EST
Temp
°C
App
Temp
°C
Dew
Point
Rel
Hum
%
Delta-T
°C
Wind Press
QNH
hPa
Press
MSL
hPa
Rain
since 9 am
mm
Dir
 
Spd
km/h
Gust
km/h
Spd
kts
Gust
kts
30/11:56pm 25.1 25.4 23.0 88 1.4 E 26 43 14 23 1018.0 1018.0 9.6
30/11:30pm 25.2 27.0 23.3 89 1.3 E 19 24 10 13 1018.1 1018.1 9.6
30/11:11pm 24.9 27.1 23.3 91 1.1 E 17 24 9 13 1018.1 1018.1 9.6
30/11:00pm 24.6 26.2 23.2 92 0.9 E 20 32 11 17 1018.2 1018.2 9.6
30/10:55pm 24.7 25.1 23.1 91 1.1 E 26 35 14 19 1018.3 1018.3 9.4
30/10:34pm 25.0 25.8 23.1 89 1.3 E 24 32 13 17 1018.3 1018.3 9.2
30/10:30pm 24.9 26.0 23.1 90 1.2 ENE 22 32 12 17 1018.3 1018.3 9.2
30/10:07pm 24.3 23.9 22.4 89 1.3 ENE 28 48 15 26 1018.7 1018.7 5.8
30/10:00pm 24.6 24.1 22.8 90 1.2 ENE 30 41 16 22 1018.7 1018.7 5.4
30/09:52pm 24.6 23.3 22.5 88 1.4 ENE 33 43 18 23 1018.7 1018.7 5.2
30/09:30pm 26.4 27.3 23.3 83 2.1 ESE 24 32 13 17 1018.6 1018.6 4.8
30/09:00pm 26.2 26.3 22.5 80 2.5 ESE 26 35 14 19 1018.7 1018.7 4.8
30/08:30pm 25.9 27.1 23.2 85 1.8 ESE 22 28 12 15 1018.6 1018.6 4.8
30/08:00pm 25.5 25.3 22.8 85 1.8 ESE 28 37 15 20 1018.4 1018.4 4.8
30/07:30pm 24.6 25.9 22.3 87 1.5 S 19 28 10 15 1018.2 1018.2 4.8
30/07:00pm 25.8 27.7 22.7 83 2.1 SE 17 24 9 13 1017.8 1017.8 4.8
30/06:30pm 25.2 25.9 22.3 84 1.9 SE 22 30 12 16 1017.6 1017.6 4.8
30/06:00pm 25.8 27.2 22.9 84 2.0 SE 20 26 11 14 1017.4 1017.4 4.8
30/05:30pm 25.1 26.5 22.8 87 1.6 SE 20 24 11 13 1017.1 1017.1 4.8
30/05:00pm 26.0 28.1 23.7 87 1.6 SE 19 28 10 15 1017.0 1017.0 4.8
30/04:48pm 25.3 26.5 23.2 88 1.4 SE 22 30 12 16 1016.9 1016.9 4.8
30/04:30pm 25.2 26.4 23.8 92 1.0 SSE 24 33 13 18 1016.8 1016.8 4.6
30/04:15pm 26.6 26.5 23.5 83 2.1 SE 30 41 16 22 1016.7 1016.7 1.4
30/04:00pm 29.6 30.9 22.3 65 4.9 ESE 19 24 10 13 1016.2 1016.2 0.8
30/03:30pm 30.1 31.3 22.5 63 5.2 ESE 20 24 11 13 1016.1 1016.1 0.8
30/03:00pm 30.4 31.9 23.1 65 5.0 ESE 20 26 11 14 1015.9 1015.9 0.8
30/02:30pm 27.6 25.7 19.4 61 5.3 SE 28 37 15 20 1016.0 1016.0 0.8
30/02:00pm 30.2 31.2 22.9 65 5.0 E 22 30 12 16 1016.2 1016.2 0.8
30/01:30pm 30.3 31.8 23.0 65 5.0 E 20 28 11 15 1016.5 1016.5 0.8
30/01:00pm 29.9 30.5 22.1 63 5.3 E 22 28 12 15 1017.0 1017.0 0.8
30/12:30pm 30.1 30.4 22.3 63 5.3 E 24 30 13 16 1017.4 1017.4 0.8
30/12:00pm 30.1 30.3 22.0 62 5.5 E 24 30 13 16 1017.9 1017.9 0.8
30/11:30am 29.8 30.9 22.3 64 5.1 E 20 28 11 15 1018.4 1018.4 0.6
30/11:00am 29.3 30.8 23.0 69 4.3 E 20 28 11 15 1018.7 1018.7 0.6
30/10:30am 28.5 30.9 24.3 78 2.9 ESE 19 22 10 12 1019.1 1019.1 0.6
30/10:00am 26.9 30.2 24.5 87 1.7 ESE 15 19 8 10 1019.3 1019.3 0.6
30/09:50am 25.6 27.7 23.1 86 1.7 ESE 17 20 9 11 1019.3 1019.3 0.6
30/09:30am 25.0 25.3 22.9 88 1.4 ESE 26 37 14 20 1019.5 1019.5 0.6
30/09:21am 24.9 27.6 22.8 88 1.4 S 13 28 7 15 1019.5 1019.5 0.4
30/09:00am 25.6 27.9 22.7 84 2.0 SSE 15 22 8 12 1019.3 1019.3 17.8
30/08:30am 26.1 27.8 23.4 85 1.8 SE 20 24 11 13 1019.0 1019.0 17.8
30/08:14am 24.7 25.7 22.8 89 1.3 SE 22 30 12 16 1018.9 1018.9 17.8
30/08:00am 24.0 24.8 23.1 95 0.6 SE 24 33 13 18 1018.9 1018.9 17.8
30/07:30am 24.4 26.1 23.0 92 0.9 ESE 19 30 10 16 1018.4 1018.4 11.2
30/07:22am 24.9 27.3 23.0 89 1.3 SE 15 26 8 14 1018.5 1018.5 9.4

Other Formats:

Comma delimited format used in spreadsheet applications
http://www.bom.gov.au/fwo/IDQ60801/IDQ60801.95367.axf

JavaScript Object Notation format (JSON) in row-major order
http://www.bom.gov.au/fwo/IDQ60801/IDQ60801.95367.json